Time;durP1;ratioP1;P1;durP2;ratioP2;P2;SDS_P1;SDS_P2;PMS_P1;PMS_P2;Temp;Humidity;BMP_temperature;BMP_pressure;BME280_temperature;BME280_humidity;BME280_pressure;Samples;Min_cycle;Max_cycle;Signal;HPM_P1;HPM_P2
2023/10/12 00:01:24;;;;;;;3.50;2.40;;;;;;;;;;5140609;27;20202;-63
2023/10/12 00:03:55;;;;;;;2.92;2.28;;;;;;;;;;5141283;27;20202;-63
2023/10/12 00:06:26;;;;;;;2.95;2.42;;;;;;;;;;5141031;27;20209;-63
2023/10/12 00:08:53;;;;;;;5.32;2.30;;;;;;;;;;5140748;27;20209;-64
2023/10/12 00:11:21;;;;;;;3.10;2.50;;;;;;;;;;5140860;27;20207;-63
2023/10/12 00:13:51;;;;;;;3.50;2.50;;;;;;;;;;5141112;27;20211;-63
2023/10/12 00:16:20;;;;;;;3.38;2.38;;;;;;;;;;5141145;27;20329;-63
2023/10/12 00:18:49;;;;;;;4.50;2.33;;;;;;;;;;5141389;27;20254;-63
2023/10/12 00:21:19;;;;;;;3.05;2.60;;;;;;;;;;5140778;27;20202;-63
2023/10/12 00:23:52;;;;;;;3.47;2.50;;;;;;;;;;5120105;28;20203;-64
2023/10/12 00:26:20;;;;;;;3.33;2.55;;;;;;;;;;5120487;28;20199;-63
2023/10/12 00:28:50;;;;;;;3.70;2.47;;;;;;;;;;5120553;28;20302;-63
2023/10/12 00:31:19;;;;;;;2.83;2.30;;;;;;;;;;5120396;28;20203;-63
2023/10/12 00:33:50;;;;;;;4.90;2.80;;;;;;;;;;5120519;28;20203;-63
2023/10/12 00:36:21;;;;;;;3.20;2.50;;;;;;;;;;5120346;28;20223;-63
2023/10/12 00:38:52;;;;;;;3.65;2.45;;;;;;;;;;5119989;28;20203;-64
2023/10/12 00:41:20;;;;;;;3.13;2.60;;;;;;;;;;5120410;28;20203;-63
2023/10/12 00:43:57;;;;;;;3.72;2.72;;;;;;;;;;5120348;28;20264;-63
2023/10/12 00:46:39;;;;;;;3.10;2.63;;;;;;;;;;5120090;28;20555;-64
2023/10/12 00:49:21;;;;;;;2.53;2.33;;;;;;;;;;5120217;28;20234;-63
2023/10/12 00:51:52;;;;;;;3.65;2.63;;;;;;;;;;5120140;28;20202;-64
2023/10/12 00:54:40;;;;;;;3.85;2.45;;;;;;;;;;5119301;28;20263;-64
2023/10/12 00:57:09;;;;;;;2.97;2.45;;;;;;;;;;5119720;28;20234;-63
2023/10/12 00:59:37;;;;;;;3.00;2.53;;;;;;;;;;5119167;28;20302;-63
2023/10/12 01:02:08;;;;;;;3.90;2.58;;;;;;;;;;5119365;28;20253;-64
2023/10/12 01:04:36;;;;;;;5.50;2.83;;;;;;;;;;5119645;28;20203;-64
2023/10/12 01:07:06;;;;;;;2.85;2.50;;;;;;;;;;5119493;28;20258;-63
2023/10/12 01:09:42;;;;;;;3.13;2.63;;;;;;;;;;5120080;28;20205;-63
2023/10/12 01:12:14;;;;;;;3.83;2.63;;;;;;;;;;5119837;28;20202;-63
2023/10/12 01:14:47;;;;;;;2.70;2.50;;;;;;;;;;5119740;28;20310;-64
2023/10/12 01:17:24;;;;;;;3.22;2.83;;;;;;;;;;5119791;28;20355;-63
2023/10/12 01:19:51;;;;;;;3.17;2.88;;;;;;;;;;5119581;28;20211;-63
2023/10/12 01:22:27;;;;;;;3.88;2.72;;;;;;;;;;5128686;27;20237;-64
2023/10/12 01:25:10;;;;;;;3.72;2.90;;;;;;;;;;5140077;27;20248;-63
2023/10/12 01:27:42;;;;;;;5.00;3.00;;;;;;;;;;5140174;27;20202;-63
2023/10/12 01:30:18;;;;;;;5.35;3.20;;;;;;;;;;5139677;27;20590;-63
2023/10/12 01:32:51;;;;;;;3.35;2.70;;;;;;;;;;5139168;27;20202;-64
2023/10/12 01:35:26;;;;;;;3.35;2.63;;;;;;;;;;5139566;27;20596;-63
2023/10/12 01:38:01;;;;;;;4.07;3.05;;;;;;;;;;5139609;27;20201;-63
2023/10/12 01:40:42;;;;;;;4.03;2.70;;;;;;;;;;5139381;27;20266;-64
2023/10/12 01:43:12;;;;;;;3.22;2.70;;;;;;;;;;5139863;27;20582;-63
2023/10/12 01:45:42;;;;;;;3.65;2.50;;;;;;;;;;5139670;27;20289;-63
2023/10/12 01:48:16;;;;;;;4.40;2.88;;;;;;;;;;5139623;27;20206;-64
2023/10/12 01:50:44;;;;;;;3.95;2.80;;;;;;;;;;5139276;27;20445;-63
2023/10/12 01:53:27;;;;;;;4.95;3.08;;;;;;;;;;5139475;27;20233;-63
2023/10/12 01:55:55;;;;;;;5.40;2.80;;;;;;;;;;5139287;27;20222;-63
2023/10/12 01:58:27;;;;;;;4.68;3.10;;;;;;;;;;5138979;27;20264;-63
2023/10/12 02:00:55;;;;;;;4.00;2.70;;;;;;;;;;5138861;27;20213;-63
2023/10/12 02:03:31;;;;;;;4.53;2.92;;;;;;;;;;5137694;27;20276;-63
2023/10/12 02:06:04;;;;;;;4.30;3.10;;;;;;;;;;5138503;27;20198;-63
2023/10/12 02:08:34;;;;;;;4.72;3.00;;;;;;;;;;5139293;27;20210;-64
2023/10/12 02:11:06;;;;;;;3.85;3.15;;;;;;;;;;5139347;27;20229;-64
2023/10/12 02:13:35;;;;;;;3.20;2.90;;;;;;;;;;5139380;27;20202;-63
2023/10/12 02:16:03;;;;;;;3.60;3.10;;;;;;;;;;5138822;27;20226;-64
2023/10/12 02:18:34;;;;;;;3.92;3.10;;;;;;;;;;5138681;27;20268;-63
2023/10/12 02:21:11;;;;;;;3.22;2.92;;;;;;;;;;5139036;27;20206;-64
2023/10/12 02:23:54;;;;;;;4.07;3.00;;;;;;;;;;5138809;27;20287;-63
2023/10/12 02:26:34;;;;;;;3.85;3.10;;;;;;;;;;5138788;27;20198;-63
2023/10/12 02:29:12;;;;;;;4.22;3.00;;;;;;;;;;5138963;27;20217;-63
2023/10/12 02:31:54;;;;;;;5.85;3.20;;;;;;;;;;5138651;27;20213;-63
2023/10/12 02:34:25;;;;;;;5.20;2.92;;;;;;;;;;5138628;27;20202;-63
2023/10/12 02:37:06;;;;;;;3.67;2.83;;;;;;;;;;5138370;27;20222;-63
2023/10/12 02:39:39;;;;;;;4.78;3.00;;;;;;;;;;5138630;28;20213;-64
2023/10/12 02:42:16;;;;;;;4.00;3.22;;;;;;;;;;5138527;28;20554;-64
2023/10/12 02:44:57;;;;;;;3.03;2.70;;;;;;;;;;5138539;28;20202;-64
2023/10/12 02:47:29;;;;;;;3.25;2.67;;;;;;;;;;5138868;28;20198;-64
2023/10/12 02:50:01;;;;;;;3.13;2.83;;;;;;;;;;5138448;28;20209;-64
2023/10/12 02:52:30;;;;;;;5.25;3.22;;;;;;;;;;5138173;28;20240;-64
2023/10/12 02:55:07;;;;;;;3.50;3.00;;;;;;;;;;5138336;28;20206;-64
2023/10/12 02:57:37;;;;;;;3.90;3.00;;;;;;;;;;5138056;28;20299;-64
2023/10/12 03:00:12;;;;;;;5.50;3.45;;;;;;;;;;5138676;28;20206;-64
2023/10/12 03:02:43;;;;;;;3.83;3.08;;;;;;;;;;5138259;28;20209;-64
2023/10/12 03:05:17;;;;;;;3.60;3.00;;;;;;;;;;5138311;28;20547;-64
2023/10/12 03:07:45;;;;;;;3.60;2.88;;;;;;;;;;5138244;28;20299;-64
2023/10/12 03:10:26;;;;;;;3.60;2.80;;;;;;;;;;5138266;28;20206;-64
2023/10/12 03:12:55;;;;;;;2.95;2.50;;;;;;;;;;5137507;28;20202;-64
2023/10/12 03:15:40;;;;;;;3.25;2.70;;;;;;;;;;5137902;28;20207;-64
2023/10/12 03:18:11;;;;;;;4.32;3.05;;;;;;;;;;5141424;27;20198;-64
2023/10/12 03:20:39;;;;;;;3.05;2.75;;;;;;;;;;5142127;27;20221;-64
2023/10/12 03:23:13;;;;;;;3.75;2.80;;;;;;;;;;5141746;27;20565;-64
2023/10/12 03:25:46;;;;;;;4.22;3.00;;;;;;;;;;5141923;27;20202;-64
2023/10/12 03:28:29;;;;;;;4.60;3.20;;;;;;;;;;5141990;27;20202;-64
2023/10/12 03:31:12;;;;;;;3.40;2.60;;;;;;;;;;5141664;27;20308;-64
2023/10/12 03:33:39;;;;;;;3.90;2.72;;;;;;;;;;5141860;27;20252;-64
2023/10/12 03:36:22;;;;;;;3.55;2.90;;;;;;;;;;5141628;27;20598;-64
2023/10/12 03:39:07;;;;;;;3.75;3.05;;;;;;;;;;5141722;27;20213;-64
2023/10/12 03:41:55;;;;;;;3.72;3.20;;;;;;;;;;5141877;27;20202;-65
2023/10/12 03:44:35;;;;;;;3.15;2.83;;;;;;;;;;5141602;27;20217;-64
2023/10/12 03:47:04;;;;;;;3.75;3.05;;;;;;;;;;5141781;27;20248;-64
2023/10/12 03:49:43;;;;;;;4.78;3.20;;;;;;;;;;5141428;27;20241;-64
2023/10/12 03:52:14;;;;;;;3.90;2.92;;;;;;;;;;5141612;27;20701;-64
2023/10/12 03:54:55;;;;;;;3.30;3.00;;;;;;;;;;5141728;27;20570;-64
2023/10/12 03:57:36;;;;;;;3.80;2.75;;;;;;;;;;5141181;27;20237;-63
2023/10/12 04:02:54;;;;;;;3.65;2.92;;;;;;;;;;5140272;27;20292;-63
2023/10/12 04:05:35;;;;;;;4.55;2.90;;;;;;;;;;5141097;27;20308;-63
2023/10/12 04:08:19;;;;;;;3.70;3.15;;;;;;;;;;5141067;27;20198;-63
2023/10/12 04:14:17;;;;;;;3.60;2.75;;;;;;;;;;5080336;27;20217;-63
2023/10/12 04:16:45;;;;;;;4.30;2.95;;;;;;;;;;5140358;27;20278;-63
2023/10/12 04:19:17;;;;;;;3.78;2.80;;;;;;;;;;5140748;27;20213;-63
2023/10/12 04:22:04;;;;;;;3.03;2.72;;;;;;;;;;5140312;27;20230;-63
2023/10/12 04:24:45;;;;;;;4.60;3.08;;;;;;;;;;5140716;27;20472;-63
2023/10/12 04:27:38;;;;;;;3.78;3.15;;;;;;;;;;5140292;27;20202;-64
2023/10/12 04:30:20;;;;;;;3.28;2.95;;;;;;;;;;5139674;27;20202;-64
2023/10/12 04:32:57;;;;;;;4.85;3.65;;;;;;;;;;5140072;27;20623;-63
2023/10/12 04:35:52;;;;;;;4.07;2.70;;;;;;;;;;5139813;27;20209;-65
2023/10/12 04:38:45;;;;;;;3.35;2.90;;;;;;;;;;5139834;27;20225;-64
2023/10/12 04:41:38;;;;;;;3.53;2.95;;;;;;;;;;5139922;27;20209;-65
2023/10/12 04:44:25;;;;;;;3.13;2.78;;;;;;;;;;5139570;27;20202;-65
2023/10/12 04:46:58;;;;;;;3.55;2.88;;;;;;;;;;5139358;27;20213;-65
2023/10/12 04:52:17;;;;;;;3.20;2.90;;;;;;;;;;5130046;27;20259;-65
2023/10/12 04:55:19;;;;;;;3.95;2.95;;;;;;;;;;5139481;27;20202;-65
2023/10/12 04:58:09;;;;;;;3.30;2.72;;;;;;;;;;5139391;27;20583;-66
2023/10/12 05:00:48;;;;;;;3.58;2.60;;;;;;;;;;5139006;27;20243;-65
2023/10/12 05:03:25;;;;;;;3.78;2.63;;;;;;;;;;5139500;27;20209;-65
2023/10/12 05:06:04;;;;;;;3.50;2.90;;;;;;;;;;5138888;27;20252;-65
2023/10/12 05:08:33;;;;;;;2.95;2.55;;;;;;;;;;5139238;27;20204;-65
2023/10/12 05:11:00;;;;;;;3.03;2.38;;;;;;;;;;5139111;27;20482;-65
2023/10/12 05:13:28;;;;;;;2.65;2.45;;;;;;;;;;5130993;27;20301;-65
2023/10/12 05:15:56;;;;;;;2.85;2.58;;;;;;;;;;5138324;27;20206;-64
2023/10/12 05:18:26;;;;;;;2.78;2.53;;;;;;;;;;5138947;27;20485;-65
2023/10/12 05:20:54;;;;;;;2.92;2.63;;;;;;;;;;5138947;27;20215;-65
2023/10/12 05:23:21;;;;;;;2.78;2.58;;;;;;;;;;5138425;27;20241;-65
2023/10/12 05:26:07;;;;;;;2.97;2.67;;;;;;;;;;5138635;27;20207;-65
2023/10/12 05:28:38;;;;;;;3.20;2.50;;;;;;;;;;5137888;27;20580;-65
2023/10/12 05:31:13;;;;;;;4.47;2.90;;;;;;;;;;5137956;27;20489;-65
2023/10/12 05:34:00;;;;;;;2.83;2.63;;;;;;;;;;5138778;27;20205;-65
2023/10/12 05:36:31;;;;;;;2.95;2.60;;;;;;;;;;5138360;27;20231;-65
2023/10/12 05:39:13;;;;;;;3.47;2.95;;;;;;;;;;5138073;27;20202;-65
2023/10/12 05:41:41;;;;;;;2.80;2.60;;;;;;;;;;5137948;27;20209;-65
2023/10/12 05:44:23;;;;;;;3.13;2.83;;;;;;;;;;5138531;27;20202;-65
2023/10/12 05:46:59;;;;;;;3.75;2.85;;;;;;;;;;5138185;27;20234;-65
2023/10/12 05:49:28;;;;;;;2.60;2.40;;;;;;;;;;5137712;27;20236;-65
2023/10/12 05:51:56;;;;;;;3.00;2.70;;;;;;;;;;5137498;27;20292;-65
2023/10/12 05:54:24;;;;;;;3.00;2.72;;;;;;;;;;5137602;27;20205;-65
2023/10/12 05:56:52;;;;;;;3.25;2.95;;;;;;;;;;5137607;27;20226;-65
2023/10/12 05:59:20;;;;;;;2.92;2.63;;;;;;;;;;5137354;27;20202;-65
2023/10/12 06:01:48;;;;;;;3.42;2.85;;;;;;;;;;5137152;27;20514;-65
2023/10/12 06:04:19;;;;;;;2.90;2.60;;;;;;;;;;5136694;27;20194;-66
2023/10/12 06:06:51;;;;;;;4.40;2.80;;;;;;;;;;5137410;27;20233;-65
2023/10/12 06:09:20;;;;;;;3.28;2.70;;;;;;;;;;5136694;27;20194;-65
2023/10/12 06:11:48;;;;;;;2.97;2.67;;;;;;;;;;5136714;27;20251;-65
2023/10/12 06:14:20;;;;;;;3.05;2.67;;;;;;;;;;5136776;27;20684;-65
2023/10/12 06:16:48;;;;;;;3.00;2.70;;;;;;;;;;5137569;27;20235;-64
2023/10/12 06:19:22;;;;;;;2.97;2.65;;;;;;;;;;5137423;27;20253;-64
2023/10/12 06:21:52;;;;;;;3.00;2.47;;;;;;;;;;5136838;27;20237;-65
2023/10/12 06:24:33;;;;;;;2.95;2.65;;;;;;;;;;5137025;27;20297;-65
2023/10/12 06:27:02;;;;;;;3.13;2.72;;;;;;;;;;5136903;27;20198;-64
2023/10/12 06:29:30;;;;;;;2.92;2.28;;;;;;;;;;5136802;27;20202;-64
2023/10/12 06:31:59;;;;;;;2.63;2.42;;;;;;;;;;5136898;27;20300;-65
2023/10/12 06:34:29;;;;;;;2.92;2.72;;;;;;;;;;5136677;27;20301;-65
2023/10/12 06:37:11;;;;;;;3.72;3.13;;;;;;;;;;5136025;27;20218;-65
2023/10/12 06:42:27;;;;;;;4.03;2.50;;;;;;;;;;5134819;28;20252;-64
2023/10/12 06:44:54;;;;;;;3.10;2.50;;;;;;;;;;5136077;28;20267;-65
2023/10/12 06:47:28;;;;;;;3.20;2.90;;;;;;;;;;5137547;28;20214;-65
2023/10/12 06:50:00;;;;;;;3.55;2.97;;;;;;;;;;5136541;28;20208;-65
2023/10/12 06:52:29;;;;;;;3.67;2.70;;;;;;;;;;5139755;27;20201;-65
2023/10/12 06:54:59;;;;;;;3.22;2.70;;;;;;;;;;5141260;27;20726;-65
2023/10/12 06:57:42;;;;;;;4.47;2.83;;;;;;;;;;5141135;27;20221;-65
2023/10/12 07:02:54;;;;;;;4.53;2.40;;;;;;;;;;5121821;27;20293;-65
2023/10/12 07:05:28;;;;;;;4.10;2.50;;;;;;;;;;5140978;27;20209;-65
2023/10/12 07:07:58;;;;;;;3.53;2.72;;;;;;;;;;5140691;27;20252;-64
2023/10/12 07:10:29;;;;;;;3.08;2.60;;;;;;;;;;5136935;27;20324;-64
2023/10/12 07:13:00;;;;;;;3.00;2.65;;;;;;;;;;5099121;28;20272;-64
2023/10/12 07:15:32;;;;;;;2.88;2.58;;;;;;;;;;5099409;28;20286;-65
2023/10/12 07:18:06;;;;;;;3.90;2.88;;;;;;;;;;5098997;28;20258;-64
2023/10/12 07:20:43;;;;;;;3.08;2.58;;;;;;;;;;5098901;28;20579;-64
2023/10/12 07:23:16;;;;;;;3.72;2.75;;;;;;;;;;5099070;28;20223;-65
2023/10/12 07:25:45;;;;;;;6.32;2.75;;;;;;;;;;5099123;28;20462;-65
2023/10/12 07:28:32;;;;;;;3.88;2.97;;;;;;;;;;5099677;28;20195;-65
2023/10/12 07:31:23;;;;;;;3.03;2.65;;;;;;;;;;5099478;28;20610;-64
2023/10/12 07:34:01;;;;;;;3.33;2.80;;;;;;;;;;5099315;28;20254;-65
2023/10/12 07:36:52;;;;;;;3.40;2.90;;;;;;;;;;5098809;28;20206;-65
2023/10/12 07:39:27;;;;;;;3.33;2.78;;;;;;;;;;5098352;28;20212;-65
2023/10/12 07:42:00;;;;;;;5.43;3.10;;;;;;;;;;5099015;28;20558;-65
2023/10/12 07:44:28;;;;;;;3.10;2.70;;;;;;;;;;5099275;28;20207;-64
2023/10/12 07:46:57;;;;;;;3.03;2.72;;;;;;;;;;5098797;28;20200;-65
2023/10/12 07:49:38;;;;;;;3.50;3.20;;;;;;;;;;5099171;28;20268;-65
2023/10/12 07:52:13;;;;;;;4.32;3.13;;;;;;;;;;5098767;28;20211;-65
2023/10/12 07:54:55;;;;;;;3.35;3.00;;;;;;;;;;5099133;28;20285;-65
2023/10/12 07:57:24;;;;;;;3.13;2.83;;;;;;;;;;5097253;28;20508;-65
2023/10/12 07:59:59;;;;;;;4.22;2.80;;;;;;;;;;5097994;28;20315;-65
2023/10/12 08:02:59;;;;;;;4.82;2.97;;;;;;;;;;5098326;28;20239;-65
2023/10/12 08:05:41;;;;;;;3.47;3.13;;;;;;;;;;5097975;28;20196;-65
2023/10/12 08:08:17;;;;;;;3.17;2.72;;;;;;;;;;5097523;28;20270;-65
2023/10/12 08:10:59;;;;;;;3.45;2.95;;;;;;;;;;5098216;28;20304;-65
2023/10/12 08:13:27;;;;;;;3.30;3.00;;;;;;;;;;5098147;28;20235;-65
2023/10/12 08:15:58;;;;;;;3.85;2.97;;;;;;;;;;5098268;28;20199;-65
2023/10/12 08:21:17;;;;;;;3.67;3.00;;;;;;;;;;5054042;28;20199;-65
2023/10/12 08:23:50;;;;;;;4.32;3.05;;;;;;;;;;5097052;28;20262;-65
2023/10/12 08:26:35;;;;;;;3.80;2.80;;;;;;;;;;5098175;28;20234;-65
2023/10/12 08:29:09;;;;;;;3.22;2.92;;;;;;;;;;5097789;28;20214;-65
2023/10/12 08:31:43;;;;;;;2.92;2.60;;;;;;;;;;5097878;28;20199;-65
2023/10/12 08:34:41;;;;;;;3.30;2.90;;;;;;;;;;5097432;28;20529;-65
2023/10/12 08:37:17;;;;;;;3.45;3.10;;;;;;;;;;5096981;28;20203;-65
2023/10/12 08:40:07;;;;;;;3.85;3.05;;;;;;;;;;5098250;28;20566;-65
2023/10/12 08:42:55;;;;;;;4.55;2.90;;;;;;;;;;5097271;28;20682;-65
2023/10/12 08:45:29;;;;;;;4.38;2.70;;;;;;;;;;5096687;28;20204;-65
2023/10/12 08:48:01;;;;;;;3.00;2.70;;;;;;;;;;5097941;28;20291;-65
2023/10/12 08:53:31;;;;;;;4.78;2.97;;;;;;;;;;5014416;28;20233;-65
2023/10/12 08:56:06;;;;;;;3.42;3.13;;;;;;;;;;5080368;28;20294;-64
2023/10/12 08:58:42;;;;;;;2.90;2.70;;;;;;;;;;5096868;28;20230;-65
2023/10/12 09:01:10;;;;;;;3.25;2.60;;;;;;;;;;5097212;28;20214;-65
2023/10/12 09:03:45;;;;;;;3.33;3.03;;;;;;;;;;5096811;28;20597;-65
2023/10/12 09:06:53;;;;;;;4.03;3.08;;;;;;;;;;5096970;28;20294;-65
2023/10/12 09:11:59;;;;;;;3.38;2.90;;;;;;;;;;5095739;28;20613;-65
2023/10/12 09:14:32;;;;;;;3.88;3.05;;;;;;;;;;5096527;28;20211;-65
2023/10/12 09:17:04;;;;;;;3.47;2.75;;;;;;;;;;5096643;28;20212;-65
2023/10/12 09:19:32;;;;;;;4.18;2.90;;;;;;;;;;5095515;28;20708;-65
2023/10/12 09:22:00;;;;;;;2.97;2.72;;;;;;;;;;5095973;27;20224;-65
2023/10/12 09:24:29;;;;;;;3.97;3.05;;;;;;;;;;5096054;28;20626;-64
2023/10/12 09:26:59;;;;;;;3.22;2.92;;;;;;;;;;5096081;28;20207;-64
2023/10/12 09:29:28;;;;;;;3.65;2.85;;;;;;;;;;5096277;28;20200;-65
2023/10/12 09:32:15;;;;;;;3.70;3.00;;;;;;;;;;5096063;28;20215;-65
2023/10/12 09:34:43;;;;;;;4.25;3.28;;;;;;;;;;5097254;28;20203;-65
2023/10/12 09:37:16;;;;;;;3.97;3.30;;;;;;;;;;5096769;28;20200;-64
2023/10/12 09:39:45;;;;;;;4.03;2.92;;;;;;;;;;5095978;28;20259;-65
2023/10/12 09:42:22;;;;;;;3.65;3.05;;;;;;;;;;5096507;28;20211;-65
2023/10/12 09:44:53;;;;;;;3.70;2.97;;;;;;;;;;5095872;28;20587;-65
2023/10/12 09:47:26;;;;;;;4.78;3.50;;;;;;;;;;5096530;28;20225;-65
2023/10/12 09:50:00;;;;;;;3.58;2.97;;;;;;;;;;5095613;28;20214;-65
2023/10/12 09:52:42;;;;;;;3.40;3.10;;;;;;;;;;5095335;28;20195;-64
2023/10/12 09:55:13;;;;;;;3.63;3.10;;;;;;;;;;5095497;28;20206;-65
2023/10/12 09:57:49;;;;;;;3.60;3.30;;;;;;;;;;5095794;28;20527;-64
2023/10/12 10:00:28;;;;;;;4.07;3.03;;;;;;;;;;5095435;28;20203;-64
2023/10/12 10:02:59;;;;;;;3.53;3.20;;;;;;;;;;5095341;28;20207;-64
2023/10/12 10:05:51;;;;;;;3.75;3.03;;;;;;;;;;5094722;28;20211;-65
2023/10/12 10:08:22;;;;;;;3.40;3.10;;;;;;;;;;5094747;28;20257;-65
2023/10/12 10:10:57;;;;;;;4.28;3.25;;;;;;;;;;5095981;28;20214;-65
2023/10/12 10:13:46;;;;;;;4.82;3.10;;;;;;;;;;5096545;28;20475;-65
2023/10/12 10:16:17;;;;;;;3.60;3.10;;;;;;;;;;5094931;28;20294;-65
2023/10/12 10:18:47;;;;;;;3.25;2.95;;;;;;;;;;5095579;28;20223;-65
2023/10/12 10:21:31;;;;;;;4.53;3.17;;;;;;;;;;5094995;28;20599;-65
2023/10/12 10:23:59;;;;;;;3.13;2.85;;;;;;;;;;5116140;28;20296;-65
2023/10/12 10:26:31;;;;;;;3.45;3.13;;;;;;;;;;5114302;28;20248;-65
2023/10/12 10:29:05;;;;;;;3.47;3.17;;;;;;;;;;5115801;28;20651;-65
2023/10/12 10:31:41;;;;;;;3.47;3.17;;;;;;;;;;5115603;28;20788;-65
2023/10/12 10:34:12;;;;;;;3.00;2.80;;;;;;;;;;5114712;28;20237;-65
2023/10/12 10:36:40;;;;;;;4.72;3.30;;;;;;;;;;5115583;28;20575;-64
2023/10/12 10:39:28;;;;;;;3.42;3.13;;;;;;;;;;5114903;28;20225;-64
2023/10/12 10:42:00;;;;;;;3.40;3.05;;;;;;;;;;5115034;28;20207;-64
2023/10/12 10:44:29;;;;;;;3.47;3.10;;;;;;;;;;5115546;28;20538;-64
2023/10/12 10:47:00;;;;;;;3.60;2.90;;;;;;;;;;5115162;28;20209;-64
2023/10/12 10:49:31;;;;;;;3.20;2.90;;;;;;;;;;5117113;28;20209;-65
2023/10/12 10:52:18;;;;;;;3.92;3.53;;;;;;;;;;5115515;28;20285;-65
2023/10/12 10:54:56;;;;;;;3.33;3.03;;;;;;;;;;5116113;28;20503;-65
2023/10/12 10:57:37;;;;;;;3.08;2.78;;;;;;;;;;5115304;28;20297;-65
2023/10/12 11:00:10;;;;;;;3.47;3.17;;;;;;;;;;5115334;28;20325;-65
2023/10/12 11:02:40;;;;;;;3.55;2.80;;;;;;;;;;5115491;28;20198;-65
2023/10/12 11:05:19;;;;;;;3.17;2.88;;;;;;;;;;5115395;28;20268;-65
2023/10/12 11:07:50;;;;;;;3.55;2.85;;;;;;;;;;5114034;28;20195;-65
2023/10/12 11:10:31;;;;;;;4.00;3.13;;;;;;;;;;5114536;28;20256;-65
2023/10/12 11:13:00;;;;;;;3.83;3.08;;;;;;;;;;5114686;28;20217;-65
2023/10/12 11:15:28;;;;;;;3.53;3.05;;;;;;;;;;5114547;28;20597;-65
2023/10/12 11:18:07;;;;;;;3.17;2.87;;;;;;;;;;5114701;28;20206;-65
2023/10/12 11:20:43;;;;;;;4.03;3.17;;;;;;;;;;5115679;28;20298;-64
2023/10/12 11:23:11;;;;;;;3.17;2.85;;;;;;;;;;5115592;28;20258;-64
2023/10/12 11:25:42;;;;;;;3.50;3.20;;;;;;;;;;5115521;28;20238;-64
2023/10/12 11:28:20;;;;;;;3.10;2.80;;;;;;;;;;5114878;28;20291;-64
2023/10/12 11:30:51;;;;;;;3.33;3.03;;;;;;;;;;5113736;28;20557;-64
2023/10/12 11:33:27;;;;;;;3.67;3.38;;;;;;;;;;5114847;28;20738;-63
2023/10/12 11:36:00;;;;;;;3.20;2.90;;;;;;;;;;5114180;28;20209;-63
2023/10/12 11:38:29;;;;;;;3.35;2.88;;;;;;;;;;5117274;28;20300;-64
2023/10/12 11:40:57;;;;;;;3.42;3.00;;;;;;;;;;5118470;28;20208;-65
2023/10/12 11:43:29;;;;;;;3.45;3.15;;;;;;;;;;5118146;28;20213;-63
2023/10/12 11:46:01;;;;;;;2.97;2.67;;;;;;;;;;5117919;28;20289;-63
2023/10/12 11:48:29;;;;;;;3.17;2.88;;;;;;;;;;5118168;28;20231;-63
2023/10/12 11:50:59;;;;;;;3.30;3.00;;;;;;;;;;5117966;28;20210;-63
2023/10/12 11:53:28;;;;;;;3.25;2.95;;;;;;;;;;5118536;28;20199;-63
2023/10/12 11:56:07;;;;;;;3.38;3.08;;;;;;;;;;5117837;28;20230;-63
2023/10/12 11:58:35;;;;;;;3.22;2.92;;;;;;;;;;5119254;28;20614;-63
2023/10/12 12:01:03;;;;;;;2.90;2.70;;;;;;;;;;5117936;28;20325;-65
2023/10/12 12:03:37;;;;;;;3.45;3.15;;;;;;;;;;5118454;28;20214;-64
2023/10/12 12:06:11;;;;;;;3.60;2.90;;;;;;;;;;5118671;28;20230;-64
2023/10/12 12:08:40;;;;;;;3.40;3.10;;;;;;;;;;5117787;28;20193;-63
2023/10/12 12:11:09;;;;;;;3.42;3.13;;;;;;;;;;5117259;28;20260;-63
2023/10/12 12:13:42;;;;;;;3.45;3.15;;;;;;;;;;5117489;28;20195;-65
2023/10/12 12:16:10;;;;;;;3.45;3.00;;;;;;;;;;5118456;28;20217;-64
2023/10/12 12:18:38;;;;;;;4.00;3.08;;;;;;;;;;5117362;28;20288;-63
2023/10/12 12:21:17;;;;;;;3.70;3.00;;;;;;;;;;5117571;28;20203;-63
2023/10/12 12:23:48;;;;;;;3.47;3.15;;;;;;;;;;5096842;28;20200;-63
2023/10/12 12:26:18;;;;;;;4.07;3.10;;;;;;;;;;5106213;28;20264;-63
2023/10/12 12:28:49;;;;;;;3.95;3.58;;;;;;;;;;5115891;28;20444;-63
2023/10/12 12:31:17;;;;;;;3.17;2.88;;;;;;;;;;5116464;28;20210;-63
2023/10/12 12:33:45;;;;;;;3.60;3.30;;;;;;;;;;5116520;28;20203;-63
2023/10/12 12:36:21;;;;;;;3.85;3.10;;;;;;;;;;5116020;28;20203;-63
2023/10/12 12:38:52;;;;;;;3.55;3.25;;;;;;;;;;5116825;28;20280;-63
2023/10/12 12:41:19;;;;;;;3.30;3.00;;;;;;;;;;5116457;28;20211;-64
2023/10/12 12:43:47;;;;;;;3.78;2.92;;;;;;;;;;5116365;28;20324;-64
2023/10/12 12:46:16;;;;;;;3.60;3.15;;;;;;;;;;5116297;28;20202;-64
2023/10/12 12:48:45;;;;;;;3.15;2.95;;;;;;;;;;5116768;28;20207;-63
2023/10/12 12:51:15;;;;;;;2.88;2.67;;;;;;;;;;5117175;28;20214;-63
2023/10/12 12:53:46;;;;;;;3.35;3.05;;;;;;;;;;5116920;28;20676;-63
2023/10/12 12:56:15;;;;;;;3.70;3.00;;;;;;;;;;5116749;28;20314;-64
2023/10/12 12:58:47;;;;;;;3.40;2.75;;;;;;;;;;5116094;28;20203;-63
2023/10/12 13:01:16;;;;;;;3.25;2.95;;;;;;;;;;5117159;28;20203;-63
2023/10/12 13:03:43;;;;;;;3.67;3.38;;;;;;;;;;5116499;28;20203;-63
2023/10/12 13:06:12;;;;;;;3.35;3.05;;;;;;;;;;5116370;28;20610;-63
2023/10/12 13:08:41;;;;;;;3.88;3.33;;;;;;;;;;5115041;28;20268;-64
2023/10/12 13:11:09;;;;;;;3.42;3.13;;;;;;;;;;5115448;28;20774;-63
2023/10/12 13:13:39;;;;;;;3.65;3.25;;;;;;;;;;5116039;28;20291;-63
2023/10/12 13:16:07;;;;;;;3.40;3.10;;;;;;;;;;5116545;28;20271;-63
2023/10/12 13:18:35;;;;;;;3.20;2.90;;;;;;;;;;5116434;28;20203;-63
2023/10/12 13:21:06;;;;;;;3.10;2.80;;;;;;;;;;5116388;28;20491;-63
2023/10/12 13:23:35;;;;;;;3.08;2.75;;;;;;;;;;5115794;28;20231;-63
2023/10/12 13:26:08;;;;;;;3.40;2.80;;;;;;;;;;5116012;28;20199;-63
2023/10/12 13:28:38;;;;;;;3.55;3.25;;;;;;;;;;5116075;28;20260;-63
2023/10/12 13:31:06;;;;;;;3.17;2.88;;;;;;;;;;5115545;28;20242;-63
2023/10/12 13:33:34;;;;;;;3.08;2.78;;;;;;;;;;5115771;28;20238;-63
2023/10/12 13:36:02;;;;;;;3.53;2.70;;;;;;;;;;5115509;28;20260;-63
2023/10/12 13:38:33;;;;;;;3.30;2.60;;;;;;;;;;5115775;28;20206;-63
2023/10/12 13:41:02;;;;;;;3.17;2.85;;;;;;;;;;5114905;28;20227;-63
2023/10/12 13:43:31;;;;;;;3.20;2.90;;;;;;;;;;5115166;28;20209;-63
2023/10/12 13:46:07;;;;;;;4.20;3.30;;;;;;;;;;5115011;28;20707;-63
2023/10/12 13:48:37;;;;;;;3.40;3.10;;;;;;;;;;5114248;28;20564;-63
2023/10/12 13:51:08;;;;;;;3.08;2.80;;;;;;;;;;5114334;28;20195;-63
2023/10/12 13:53:37;;;;;;;3.20;2.90;;;;;;;;;;5115330;28;20209;-63
2023/10/12 13:56:07;;;;;;;3.03;2.72;;;;;;;;;;5114954;28;20306;-63
2023/10/12 13:58:36;;;;;;;3.40;3.10;;;;;;;;;;5115218;28;20226;-63
2023/10/12 14:01:04;;;;;;;3.40;2.88;;;;;;;;;;5113367;28;20687;-63
2023/10/12 14:03:34;;;;;;;3.53;2.80;;;;;;;;;;5114456;28;20211;-63
2023/10/12 14:06:02;;;;;;;3.45;3.15;;;;;;;;;;5114875;28;20203;-63
2023/10/12 14:08:34;;;;;;;3.45;3.00;;;;;;;;;;5114788;28;20203;-63
2023/10/12 14:11:04;;;;;;;3.10;2.80;;;;;;;;;;5114939;28;20213;-63
2023/10/12 14:13:32;;;;;;;3.47;3.17;;;;;;;;;;5115300;28;20203;-63
2023/10/12 14:16:01;;;;;;;3.22;2.92;;;;;;;;;;5115722;28;20265;-63
2023/10/12 14:18:30;;;;;;;3.22;2.92;;;;;;;;;;5114733;28;20283;-63
2023/10/12 14:20:59;;;;;;;3.35;2.97;;;;;;;;;;5115359;28;20215;-63
2023/10/12 14:23:29;;;;;;;3.90;3.13;;;;;;;;;;5115552;28;20238;-63
2023/10/12 14:25:57;;;;;;;3.35;3.05;;;;;;;;;;5115302;28;20298;-63
2023/10/12 14:28:31;;;;;;;3.10;2.80;;;;;;;;;;5114800;28;20203;-63
2023/10/12 14:31:00;;;;;;;3.47;3.10;;;;;;;;;;5115240;28;20543;-63
2023/10/12 14:33:31;;;;;;;3.20;2.90;;;;;;;;;;5115168;28;20241;-63
2023/10/12 14:35:59;;;;;;;3.10;2.65;;;;;;;;;;5114261;28;20234;-63
2023/10/12 14:38:30;;;;;;;3.13;2.85;;;;;;;;;;5114960;28;20202;-63
2023/10/12 14:40:58;;;;;;;3.47;2.85;;;;;;;;;;5114291;28;20218;-64
2023/10/12 14:43:29;;;;;;;3.42;2.83;;;;;;;;;;5114357;28;20288;-63
2023/10/12 14:45:58;;;;;;;4.03;3.28;;;;;;;;;;5113422;28;20287;-63
2023/10/12 14:48:26;;;;;;;3.28;2.97;;;;;;;;;;5113623;28;20207;-63
2023/10/12 14:51:07;;;;;;;3.28;2.97;;;;;;;;;;5114018;28;20206;-63
2023/10/12 14:53:35;;;;;;;3.00;2.80;;;;;;;;;;5113397;28;20301;-63
2023/10/12 14:56:03;;;;;;;3.35;3.05;;;;;;;;;;5113555;28;20557;-63
2023/10/12 14:58:32;;;;;;;3.28;2.90;;;;;;;;;;5112900;28;20229;-63
2023/10/12 15:00:59;;;;;;;3.20;2.90;;;;;;;;;;5114042;28;20625;-63
2023/10/12 15:03:34;;;;;;;3.00;2.80;;;;;;;;;;5113340;28;20298;-63
2023/10/12 15:06:05;;;;;;;3.45;3.10;;;;;;;;;;5114720;28;20210;-63
2023/10/12 15:08:36;;;;;;;2.92;2.72;;;;;;;;;;5114581;28;20203;-63
2023/10/12 15:11:05;;;;;;;3.17;2.88;;;;;;;;;;5113615;28;20206;-63
2023/10/12 15:13:37;;;;;;;3.17;2.97;;;;;;;;;;5116660;28;20213;-63
2023/10/12 15:16:07;;;;;;;3.10;2.70;;;;;;;;;;5119034;28;20284;-63
2023/10/12 15:18:37;;;;;;;3.65;3.05;;;;;;;;;;5118409;28;20264;-63
2023/10/12 15:21:10;;;;;;;3.45;3.15;;;;;;;;;;5118935;28;20326;-63
2023/10/12 15:23:37;;;;;;;2.88;2.67;;;;;;;;;;5137542;27;20234;-63
2023/10/12 15:26:06;;;;;;;3.42;3.13;;;;;;;;;;5138494;27;20202;-64
2023/10/12 15:28:35;;;;;;;3.38;3.05;;;;;;;;;;5138721;27;20210;-63
2023/10/12 15:31:06;;;;;;;3.30;3.00;;;;;;;;;;5138740;27;20212;-63
2023/10/12 15:33:33;;;;;;;3.58;3.28;;;;;;;;;;5138681;27;20272;-63
2023/10/12 15:36:01;;;;;;;3.13;2.90;;;;;;;;;;5138967;27;20213;-63
2023/10/12 15:38:32;;;;;;;3.30;2.97;;;;;;;;;;5138132;27;20205;-63
2023/10/12 15:41:00;;;;;;;3.20;2.90;;;;;;;;;;5138368;27;20849;-63
2023/10/12 15:43:28;;;;;;;3.70;3.03;;;;;;;;;;5139148;27;20202;-63